createdAt,value
2016-09-08T00:00:03.181Z,0
2016-09-08T00:01:03.151Z,0
2016-09-08T00:02:03.119Z,0
2016-09-08T00:03:02.784Z,0
2016-09-08T00:04:02.748Z,0
2016-09-08T00:05:03.017Z,0
2016-09-08T00:06:02.979Z,0
2016-09-08T00:07:02.945Z,0
2016-09-08T00:08:02.310Z,0
2016-09-08T00:09:02.571Z,0
2016-09-08T00:10:02.541Z,0
2016-09-08T00:11:02.827Z,0
2016-09-08T00:12:02.172Z,0
2016-09-08T00:13:02.437Z,0
2016-09-08T00:14:02.406Z,0
2016-09-08T00:15:02.667Z,0
2016-09-08T00:16:02.641Z,0
2016-09-08T00:17:02.608Z,0
2016-09-08T00:18:02.573Z,0
2016-09-08T00:19:02.232Z,0
2016-09-08T00:20:02.514Z,0
2016-09-08T00:21:02.169Z,0
2016-09-08T00:22:02.436Z,0
2016-09-08T00:23:02.405Z,0
2016-09-08T00:24:02.079Z,0
2016-09-08T00:25:02.034Z,0
2016-09-08T00:26:02.003Z,0
2016-09-08T00:27:01.364Z,0
2016-09-08T00:28:01.932Z,0
2016-09-08T00:29:02.206Z,0
2016-09-08T00:30:01.866Z,0
2016-09-08T00:31:01.528Z,0
2016-09-08T00:32:01.799Z,0
2016-09-08T00:33:01.757Z,0
2016-09-08T00:34:01.731Z,0
2016-09-08T00:35:01.698Z,0
2016-09-08T00:36:01.965Z,0
2016-09-08T00:37:01.338Z,0
2016-09-08T00:38:01.591Z,0
2016-09-08T00:39:01.863Z,0
2016-09-08T00:40:01.825Z,0
2016-09-08T00:41:01.191Z,0
2016-09-08T00:42:01.460Z,0
2016-09-08T00:43:01.429Z,0
2016-09-08T00:44:01.393Z,0
2016-09-08T00:45:01.662Z,0
2016-09-08T00:46:01.326Z,0
2016-09-08T00:47:01.286Z,0
2016-09-08T00:48:01.255Z,0
2016-09-08T00:49:01.223Z,0
2016-09-08T00:50:00.591Z,0
2016-09-08T00:51:01.457Z,0
2016-09-08T00:52:01.125Z,0
2016-09-08T00:53:01.085Z,0
2016-09-08T00:54:00.751Z,0
2016-09-08T00:55:00.718Z,0
2016-09-08T00:56:00.985Z,0
2016-09-08T00:57:00.657Z,0
2016-09-08T00:58:01.223Z,0
2016-09-08T00:59:01.181Z,0
2016-09-08T01:00:00.847Z,0
2016-09-08T01:01:01.115Z,0
2016-09-08T01:02:00.785Z,0
2016-09-08T01:03:00.748Z,0
2016-09-08T01:04:01.028Z,0
2016-09-08T01:05:00.071Z,0
2016-09-08T01:06:00.948Z,0
2016-09-08T01:07:00.917Z,0
2016-09-08T01:08:00.880Z,0
2016-09-08T01:09:00.859Z,0
2016-09-08T01:10:00.806Z,0
2016-09-08T01:11:00.480Z,0
2016-09-08T01:12:00.449Z,0
2016-09-08T01:13:00.410Z,0
2016-09-08T01:14:00.377Z,0
2016-09-08T01:15:00.639Z,0
2016-09-08T01:16:00.309Z,0
2016-09-08T01:17:00.581Z,0
2016-09-08T01:17:59.934Z,0
2016-09-08T01:19:00.500Z,0
2016-09-08T01:20:00.176Z,0
2016-09-08T01:21:00.433Z,0
2016-09-08T01:22:00.103Z,0
2016-09-08T01:23:00.373Z,0
2016-09-08T01:23:59.730Z,0
2016-09-08T01:25:00.001Z,0
2016-09-08T01:25:59.965Z,0
2016-09-08T01:27:00.233Z,0
2016-09-08T01:27:59.896Z,0
2016-09-08T01:28:59.866Z,0
2016-09-08T01:29:59.826Z,0
2016-09-08T01:31:00.095Z,0
2016-09-08T01:31:59.454Z,0
2016-09-08T01:33:00.036Z,0
2016-09-08T01:33:59.389Z,0
2016-09-08T01:34:59.671Z,0
2016-09-08T01:35:59.626Z,0
2016-09-08T01:36:59.599Z,0
2016-09-08T01:37:59.254Z,0
2016-09-08T01:38:59.835Z,0
2016-09-08T01:39:59.187Z,0
2016-09-08T01:40:59.760Z,0
2016-09-08T01:41:59.423Z,0
2016-09-08T01:42:59.391Z,0
2016-09-08T01:43:59.653Z,0
2016-09-08T01:44:59.320Z,0
2016-09-08T01:45:59.288Z,0
2016-09-08T01:46:59.264Z,0
2016-09-08T01:47:59.517Z,0
2016-09-08T01:48:59.186Z,0
2016-09-08T01:49:59.451Z,0
2016-09-08T01:50:59.116Z,0
2016-09-08T01:51:59.082Z,0
2016-09-08T01:52:59.349Z,0
2016-09-08T01:53:59.008Z,0
2016-09-08T01:54:58.680Z,0
2016-09-08T01:55:58.947Z,0
2016-09-08T01:56:58.911Z,0
2016-09-08T01:57:58.884Z,0
2016-09-08T01:58:59.148Z,0
2016-09-08T01:59:59.114Z,0
2016-09-08T02:00:58.470Z,0
2016-09-08T02:01:58.754Z,0
2016-09-08T02:02:58.405Z,0
2016-09-08T02:03:58.675Z,0
2016-09-08T02:04:58.332Z,0
2016-09-08T02:05:58.606Z,0
2016-09-08T02:06:58.566Z,0
2016-09-08T02:07:58.533Z,0
2016-09-08T02:08:57.901Z,0
2016-09-08T02:09:58.764Z,0
2016-09-08T02:10:58.432Z,0
2016-09-08T02:11:58.401Z,0
2016-09-08T02:12:58.362Z,0
2016-09-08T02:13:58.024Z,0
2016-09-08T02:14:58.296Z,0
2016-09-08T02:15:58.557Z,0
2016-09-08T02:16:57.950Z,0
2016-09-08T02:17:58.194Z,0
2016-09-08T02:18:57.858Z,0
2016-09-08T02:19:58.125Z,0
2016-09-08T02:20:58.097Z,0
2016-09-08T02:21:58.358Z,0
2016-09-08T02:22:58.032Z,0
2016-09-08T02:23:57.688Z,0
2016-09-08T02:24:58.254Z,0
2016-09-08T02:25:57.918Z,0
2016-09-08T02:26:57.886Z,0
2016-09-08T02:27:57.855Z,0
2016-09-08T02:28:57.512Z,0
2016-09-08T02:29:57.791Z,0
2016-09-08T02:30:58.049Z,0
2016-09-08T02:31:57.418Z,0
2016-09-08T02:32:57.676Z,0
2016-09-08T02:33:57.958Z,0
2016-09-08T02:34:57.606Z,0
2016-09-08T02:35:57.623Z,0
2016-09-08T02:36:57.846Z,0
2016-09-08T02:37:57.813Z,0
2016-09-08T02:38:57.481Z,0
2016-09-08T02:39:57.144Z,0
2016-09-08T02:40:57.705Z,0
2016-09-08T02:41:57.374Z,0
2016-09-08T02:42:57.342Z,0
2016-09-08T02:43:57.609Z,0
2016-09-08T02:44:56.664Z,0
2016-09-08T02:45:57.536Z,0
2016-09-08T02:46:57.204Z,0
2016-09-08T02:47:57.474Z,0
2016-09-08T02:48:57.136Z,0
2016-09-08T02:49:57.098Z,0
2016-09-08T02:50:57.061Z,0
2016-09-08T02:51:56.726Z,0
2016-09-08T02:52:57.301Z,0
2016-09-08T02:53:56.955Z,0
2016-09-08T02:54:56.624Z,0
2016-09-08T02:55:57.190Z,0
2016-09-08T02:56:56.562Z,0
2016-09-08T02:57:56.823Z,0
2016-09-08T02:58:56.789Z,0
2016-09-08T02:59:56.754Z,0
2016-09-08T03:00:57.024Z,0
2016-09-08T03:01:56.686Z,0
2016-09-08T03:02:56.350Z,0
2016-09-08T03:03:56.614Z,0
2016-09-08T03:04:56.277Z,0
2016-09-08T03:05:56.546Z,0
2016-09-08T03:06:56.214Z,0
2016-09-08T03:07:56.192Z,0
2016-09-08T03:08:56.459Z,0
2016-09-08T03:09:56.413Z,0
2016-09-08T03:10:56.674Z,0
2016-09-08T03:11:56.344Z,0
2016-09-08T03:12:56.606Z,0
2016-09-08T03:13:56.584Z,0
2016-09-08T03:14:56.241Z,0
2016-09-08T03:15:55.899Z,0
2016-09-08T03:16:56.176Z,0
2016-09-08T03:17:56.144Z,0
2016-09-08T03:18:56.096Z,0
2016-09-08T03:19:56.069Z,0
2016-09-08T03:20:56.037Z,0
2016-09-08T03:21:56.001Z,0
2016-09-08T03:22:55.369Z,0
2016-09-08T03:23:56.226Z,0
2016-09-08T03:24:55.899Z,0
2016-09-08T03:25:55.855Z,0
2016-09-08T03:26:55.525Z,0
2016-09-08T03:27:55.800Z,0
2016-09-08T03:28:56.086Z,0
2016-09-08T03:29:55.440Z,0
2016-09-08T03:30:55.687Z,0
2016-09-08T03:31:55.653Z,0
2016-09-08T03:32:55.916Z,0
2016-09-08T03:33:55.580Z,0
2016-09-08T03:34:55.542Z,0
2016-09-08T03:35:54.910Z,0
2016-09-08T03:36:55.786Z,0
2016-09-08T03:37:55.450Z,0
2016-09-08T03:38:55.419Z,0
2016-09-08T03:39:55.682Z,0
2016-09-08T03:40:55.342Z,0
2016-09-08T03:41:55.310Z,0
2016-09-08T03:42:55.575Z,0
2016-09-08T03:43:55.238Z,0
2016-09-08T03:44:54.910Z,0
2016-09-08T03:45:55.179Z,0
2016-09-08T03:46:55.439Z,0
2016-09-08T03:47:55.406Z,0
2016-09-08T03:48:54.463Z,0
2016-09-08T03:49:55.037Z,0
2016-09-08T03:50:55.303Z,0
2016-09-08T03:51:54.966Z,0
2016-09-08T03:52:54.925Z,0
2016-09-08T03:53:55.198Z,0
2016-09-08T03:54:55.160Z,0
2016-09-08T03:55:54.824Z,0
2016-09-08T03:56:54.790Z,0
2016-09-08T03:57:55.065Z,0
2016-09-08T03:58:55.023Z,0
2016-09-08T03:59:54.993Z,0
2016-09-08T04:00:54.657Z,0
2016-09-08T04:01:54.618Z,0
2016-09-08T04:02:54.586Z,0
2016-09-08T04:03:54.553Z,0
2016-09-08T04:04:54.828Z,0
2016-09-08T04:05:54.786Z,0
2016-09-08T04:06:54.754Z,0
2016-09-08T04:07:54.113Z,0
2016-09-08T04:08:54.685Z,0
2016-09-08T04:09:54.351Z,0
2016-09-08T04:10:54.613Z,0
2016-09-08T04:11:54.574Z,0
2016-09-08T04:12:54.240Z,0
2016-09-08T04:13:54.217Z,0
2016-09-08T04:14:53.567Z,0
2016-09-08T04:15:54.439Z,0
2016-09-08T04:16:54.103Z,0
2016-09-08T04:17:54.067Z,4
2016-09-08T04:18:54.335Z,4
2016-09-08T04:19:53.996Z,0
2016-09-08T04:20:53.963Z,0
2016-09-08T04:21:54.240Z,4
2016-09-08T04:22:54.197Z,0
2016-09-08T04:23:54.169Z,4
2016-09-08T04:24:53.831Z,8
2016-09-08T04:25:54.098Z,4
2016-09-08T04:26:53.764Z,4
2016-09-08T04:27:53.423Z,8
2016-09-08T04:28:53.685Z,8
2016-09-08T04:29:53.653Z,12
2016-09-08T04:30:53.316Z,12
2016-09-08T04:31:53.285Z,16
2016-09-08T04:32:53.548Z,20
2016-09-08T04:33:53.517Z,20
2016-09-08T04:34:53.179Z,24
2016-09-08T04:35:53.449Z,28
2016-09-08T04:36:53.411Z,32
2016-09-08T04:37:53.382Z,36
2016-09-08T04:38:53.347Z,40
2016-09-08T04:39:53.311Z,52
2016-09-08T04:40:53.274Z,56
2016-09-08T04:41:53.250Z,64
2016-09-08T04:42:53.205Z,72
2016-09-08T04:43:53.177Z,84
2016-09-08T04:44:53.435Z,92
2016-09-08T04:45:53.108Z,100
2016-09-08T04:46:53.373Z,116
2016-09-08T04:47:53.038Z,124
2016-09-08T04:48:53.002Z,136
2016-09-08T04:49:52.974Z,148
2016-09-08T04:50:53.240Z,164
2016-09-08T04:51:53.202Z,180
2016-09-08T04:52:52.563Z,200
2016-09-08T04:53:52.539Z,208
2016-09-08T04:54:52.808Z,216
2016-09-08T04:55:52.463Z,224
2016-09-08T04:56:52.741Z,240
2016-09-08T04:57:52.697Z,264
2016-09-08T04:58:52.665Z,284
2016-09-08T04:59:52.630Z,300
2016-09-08T05:00:52.597Z,308
2016-09-08T05:01:52.560Z,340
2016-09-08T05:02:52.237Z,364
2016-09-08T05:03:52.798Z,388
2016-09-08T05:04:52.463Z,404
2016-09-08T05:05:52.136Z,440
2016-09-08T05:06:52.695Z,456
2016-09-08T05:07:51.755Z,476
2016-09-08T05:08:52.021Z,504
2016-09-08T05:09:52.297Z,520
2016-09-08T05:10:52.254Z,524
2016-09-08T05:11:52.223Z,540
2016-09-08T05:12:51.887Z,592
2016-09-08T05:13:52.162Z,612
2016-09-08T05:14:52.126Z,628
2016-09-08T05:15:51.788Z,640
2016-09-08T05:16:52.054Z,696
2016-09-08T05:17:52.322Z,732
2016-09-08T05:18:51.992Z,744
2016-09-08T05:19:51.958Z,804
2016-09-08T05:20:52.227Z,836
2016-09-08T05:21:51.890Z,884
2016-09-08T05:22:52.162Z,884
2016-09-08T05:23:52.125Z,892
2016-09-08T05:24:52.098Z,944
2016-09-08T05:25:52.061Z,972
2016-09-08T05:26:51.721Z,1028
2016-09-08T05:27:51.999Z,1108
2016-09-08T05:28:51.957Z,1176
2016-09-08T05:29:51.925Z,1260
2016-09-08T05:30:51.895Z,1320
2016-09-08T05:31:51.557Z,1352
2016-09-08T05:32:51.526Z,1440
2016-09-08T05:33:51.787Z,1504
2016-09-08T05:34:51.764Z,1556
2016-09-08T05:35:51.737Z,1540
2016-09-08T05:36:51.098Z,1540
2016-09-08T05:37:51.056Z,1540
2016-09-08T05:38:51.634Z,1576
2016-09-08T05:39:50.988Z,1592
2016-09-08T05:40:51.259Z,1620
2016-09-08T05:41:51.232Z,1652
2016-09-08T05:42:51.501Z,1732
2016-09-08T05:43:51.583Z,1744
2016-09-08T05:44:50.822Z,1796
2016-09-08T05:45:51.097Z,1768
2016-09-08T05:46:51.368Z,1852
2016-09-08T05:47:51.044Z,1832
2016-09-08T05:48:51.301Z,1872
2016-09-08T05:49:51.275Z,1984
2016-09-08T05:50:51.234Z,2064
2016-09-08T05:51:51.199Z,2204
2016-09-08T05:52:50.865Z,2332
2016-09-08T05:53:51.130Z,2428
2016-09-08T05:54:51.099Z,2500
2016-09-08T05:55:51.068Z,2480
2016-09-08T05:56:50.744Z,2476
2016-09-08T05:57:50.699Z,2424
2016-09-08T05:58:50.368Z,2408
2016-09-08T05:59:50.940Z,2384
2016-09-08T06:00:50.922Z,2396
2016-09-08T06:01:50.569Z,2480
2016-09-08T06:02:50.839Z,2644
2016-09-08T06:03:50.204Z,2692
2016-09-08T06:04:50.469Z,2688
2016-09-08T06:05:50.138Z,2724
2016-09-08T06:06:50.710Z,2740
2016-09-08T06:07:50.684Z,2732
2016-09-08T06:08:50.651Z,2856
2016-09-08T06:09:50.614Z,2992
2016-09-08T06:10:50.591Z,3196
2016-09-08T06:11:50.253Z,3356
2016-09-08T06:12:50.213Z,3508
2016-09-08T06:13:50.184Z,3648
2016-09-08T06:14:50.454Z,3772
2016-09-08T06:15:50.422Z,3956
2016-09-08T06:16:50.094Z,3952
2016-09-08T06:17:50.357Z,4044
2016-09-08T06:18:50.329Z,4184
2016-09-08T06:19:50.323Z,4416
2016-09-08T06:20:49.973Z,4580
2016-09-08T06:21:50.231Z,4796
2016-09-08T06:22:50.219Z,4924
2016-09-08T06:23:50.168Z,5132
2016-09-08T06:24:50.133Z,5532
2016-09-08T06:25:50.104Z,5584
2016-09-08T06:26:49.766Z,5620
2016-09-08T06:27:50.052Z,5756
2016-09-08T06:28:49.406Z,5940
2016-09-08T06:29:49.677Z,5952
2016-09-08T06:30:49.948Z,6140
2016-09-08T06:31:49.918Z,6264
2016-09-08T06:32:49.888Z,6392
2016-09-08T06:33:49.545Z,6480
2016-09-08T06:34:49.819Z,6584
2016-09-08T06:35:49.793Z,6500
2016-09-08T06:36:49.168Z,6592
2016-09-08T06:37:49.426Z,7244
2016-09-08T06:38:49.709Z,7832
2016-09-08T06:39:49.669Z,7688
2016-09-08T06:40:49.633Z,8060
2016-09-08T06:41:49.605Z,8852
2016-09-08T06:42:49.577Z,8800
2016-09-08T06:43:49.554Z,8872
2016-09-08T06:44:49.207Z,9540
2016-09-08T06:45:49.480Z,10240
2016-09-08T06:46:49.448Z,10452
2016-09-08T06:47:48.809Z,10204
2016-09-08T06:48:49.385Z,9436
2016-09-08T06:49:49.353Z,8600
2016-09-08T06:50:49.326Z,7916
2016-09-08T06:51:49.298Z,7692
2016-09-08T06:52:48.964Z,7928
2016-09-08T06:53:49.236Z,7884
2016-09-08T06:54:49.203Z,7888
2016-09-08T06:55:48.873Z,7876
2016-09-08T06:56:49.138Z,7856
2016-09-08T06:57:49.117Z,8088
2016-09-08T06:58:49.080Z,8508
2016-09-08T06:59:48.765Z,9872
2016-09-08T07:00:49.020Z,10976
2016-09-08T07:01:48.994Z,10688
2016-09-08T07:02:48.664Z,11220
2016-09-08T07:03:48.630Z,11264
2016-09-08T07:04:48.906Z,10780
2016-09-08T07:05:48.573Z,10176
2016-09-08T07:06:48.537Z,9944
2016-09-08T07:07:48.508Z,10516
2016-09-08T07:08:48.602Z,12276
2016-09-08T07:09:48.450Z,13364
2016-09-08T07:10:48.430Z,14076
2016-09-08T07:11:48.692Z,14568
2016-09-08T07:12:48.659Z,13148
2016-09-08T07:13:48.644Z,13944
2016-09-08T07:14:48.601Z,14912
2016-09-08T07:15:47.970Z,15504
2016-09-08T07:16:48.242Z,18304
2016-09-08T07:17:48.517Z,17856
2016-09-08T07:18:48.498Z,16068
2016-09-08T07:19:48.466Z,15992
2016-09-08T07:20:48.429Z,15776
2016-09-08T07:21:48.405Z,15344
2016-09-08T07:22:48.377Z,17984
2016-09-08T07:23:47.748Z,18048
2016-09-08T07:24:48.015Z,15452
2016-09-08T07:25:48.279Z,14112
2016-09-08T07:26:48.256Z,12820
2016-09-08T07:27:47.927Z,11552
2016-09-08T07:28:48.193Z,11736
2016-09-08T07:29:48.174Z,11740
2016-09-08T07:30:48.138Z,12244
2016-09-08T07:31:48.113Z,13732
2016-09-08T07:32:47.774Z,15616
2016-09-08T07:33:48.045Z,16352
2016-09-08T07:34:47.721Z,16488
2016-09-08T07:35:47.684Z,18464
2016-09-08T07:36:47.665Z,21792
2016-09-08T07:37:47.934Z,24032
2016-09-08T07:38:47.607Z,30592
2016-09-08T07:39:47.878Z,40192
2016-09-08T07:40:47.841Z,54816
2016-09-08T07:41:47.517Z,43328
2016-09-08T07:42:47.490Z,50912
2016-09-08T07:43:47.766Z,50656
2016-09-08T07:44:47.731Z,59200
2016-09-08T07:45:47.710Z,62656
2016-09-08T07:46:47.682Z,50240
2016-09-08T07:47:47.654Z,41664
2016-09-08T07:48:47.630Z,48928
2016-09-08T07:49:46.998Z,80064
2016-09-08T07:50:47.576Z,75264
2016-09-08T07:51:47.543Z,79168
2016-09-08T07:52:46.635Z,78336
2016-09-08T07:53:47.494Z,80512
2016-09-08T07:54:47.472Z,60832
2016-09-08T07:55:47.455Z,37984
2016-09-08T07:56:47.127Z,27904
2016-09-08T07:57:47.101Z,26368
2016-09-08T07:58:47.385Z,25568
2016-09-08T07:59:47.360Z,25152
2016-09-08T08:00:47.033Z,25056
2016-09-08T08:01:47.011Z,24992
2016-09-08T08:02:47.283Z,24928
2016-09-08T08:03:46.657Z,24928
2016-09-08T08:04:46.941Z,25088
2016-09-08T08:05:46.923Z,25216
2016-09-08T08:06:47.202Z,25504
2016-09-08T08:07:46.878Z,25792
2016-09-08T08:08:46.862Z,25728
2016-09-08T08:09:47.141Z,25568
2016-09-08T08:10:47.123Z,25472
2016-09-08T08:11:47.095Z,25632
2016-09-08T08:12:46.780Z,25728
2016-09-08T08:13:47.070Z,25632
2016-09-08T08:14:47.041Z,25600
2016-09-08T08:15:47.030Z,25728
2016-09-08T08:16:46.703Z,25952
2016-09-08T08:17:46.382Z,26272
2016-09-08T08:18:46.673Z,26944
2016-09-08T08:19:46.951Z,28704
2016-09-08T08:20:46.928Z,42016
2016-09-08T08:21:46.918Z,65440
2016-09-08T08:22:46.586Z,76992
2016-09-08T08:23:46.877Z,80224
2016-09-08T08:24:46.858Z,83392
2016-09-08T08:25:46.538Z,86208
2016-09-08T08:26:46.822Z,84672
2016-09-08T08:27:46.803Z,81216
2016-09-08T08:28:46.493Z,81472
2016-09-08T08:29:46.469Z,87680
2016-09-08T08:30:46.759Z,93088
2016-09-08T08:31:46.437Z,88544
2016-09-08T08:32:46.432Z,85344
2016-09-08T08:33:46.391Z,85600
2016-09-08T08:34:46.688Z,89664
2016-09-08T08:35:46.669Z,92256
2016-09-08T08:36:46.659Z,87744
2016-09-08T08:37:46.635Z,90752
2016-09-08T08:38:46.339Z,90240
2016-09-08T08:39:46.603Z,87936
2016-09-08T08:40:46.590Z,90848
2016-09-08T08:41:46.601Z,91264
2016-09-08T08:42:46.556Z,90048
2016-09-08T08:43:45.950Z,90272
2016-09-08T08:44:46.238Z,91360
2016-09-08T08:45:46.511Z,91424
2016-09-08T08:46:46.207Z,85536
2016-09-08T08:47:46.503Z,84480
2016-09-08T08:48:46.166Z,86976
2016-09-08T08:49:46.446Z,87360
2016-09-08T08:50:46.435Z,85312
2016-09-08T08:51:46.417Z,81728
2016-09-08T08:52:45.795Z,81280
2016-09-08T08:53:45.870Z,84256
2016-09-08T08:54:46.076Z,92032
2016-09-08T08:55:46.054Z,110976
2016-09-08T08:56:46.350Z,126240
2016-09-08T08:57:46.340Z,119040
2016-09-08T08:58:46.321Z,107744
2016-09-08T08:59:46.301Z,103744
2016-09-08T09:00:46.298Z,102688
2016-09-08T09:01:46.277Z,100128
2016-09-08T09:02:46.257Z,94144
2016-09-08T09:03:46.242Z,99904
2016-09-08T09:04:46.239Z,103552
2016-09-08T09:05:45.907Z,101216
2016-09-08T09:06:46.204Z,102016
2016-09-08T09:07:46.191Z,104800
2016-09-08T09:08:45.954Z,105952
2016-09-08T09:09:45.855Z,102496
2016-09-08T09:10:45.842Z,102560
2016-09-08T09:11:46.125Z,106336
2016-09-08T09:12:45.811Z,111104
2016-09-08T09:13:46.100Z,113216
2016-09-08T09:14:45.783Z,109184
2016-09-08T09:15:45.778Z,109696
2016-09-08T09:16:45.455Z,115808
2016-09-08T09:17:46.049Z,114624
2016-09-08T09:18:45.732Z,114016
2016-09-08T09:19:46.025Z,115424
2016-09-08T09:20:46.011Z,118816
2016-09-08T09:21:45.395Z,120864
2016-09-08T09:22:45.990Z,124640
2016-09-08T09:23:45.373Z,115104
2016-09-08T09:24:45.956Z,116000
2016-09-08T09:25:45.940Z,117600
2016-09-08T09:26:45.326Z,117056
2016-09-08T09:27:45.615Z,111296
2016-09-08T09:28:45.908Z,105952
2016-09-08T09:29:45.887Z,102944
2016-09-08T09:30:45.886Z,98464
2016-09-08T09:31:45.873Z,99872
2016-09-08T09:32:45.548Z,101632
2016-09-08T09:33:45.839Z,100352
2016-09-08T09:34:45.216Z,99104
2016-09-08T09:35:45.507Z,94144
2016-09-08T09:36:45.193Z,92192
2016-09-08T09:37:45.483Z,91168
2016-09-08T09:38:45.470Z,96064
2016-09-08T09:39:45.762Z,120320
2016-09-08T09:40:45.748Z,154624
2016-09-08T09:41:45.732Z,166304
2016-09-08T09:42:45.417Z,126816
2016-09-08T09:43:45.098Z,81472
2016-09-08T09:44:45.697Z,72608
2016-09-08T09:45:45.373Z,70496
2016-09-08T09:46:45.665Z,70720
2016-09-08T09:47:45.350Z,68032
2016-09-08T09:48:45.351Z,60960
2016-09-08T09:49:45.625Z,57440
2016-09-08T09:50:45.613Z,57344
2016-09-08T09:51:45.600Z,58944
2016-09-08T09:52:45.592Z,61568
2016-09-08T09:53:45.276Z,62496
2016-09-08T09:54:45.561Z,64032
2016-09-08T09:55:45.563Z,63392
2016-09-08T09:56:45.232Z,62720
2016-09-08T09:57:45.534Z,66944
2016-09-08T09:58:45.517Z,74720
2016-09-08T09:59:45.500Z,77472
2016-09-08T10:00:45.488Z,77792
2016-09-08T10:01:45.169Z,78784
2016-09-08T10:02:45.467Z,80352
2016-09-08T10:03:45.146Z,79392
2016-09-08T10:04:45.428Z,81344
2016-09-08T10:05:45.121Z,82464
2016-09-08T10:06:45.413Z,84992
2016-09-08T10:07:45.404Z,84064
2016-09-08T10:08:45.397Z,87872
2016-09-08T10:09:45.387Z,86688
2016-09-08T10:10:45.072Z,79712
2016-09-08T10:11:45.356Z,85536
2016-09-08T10:12:45.042Z,89120
2016-09-08T10:13:45.336Z,88416
2016-09-08T10:14:45.323Z,86624
2016-09-08T10:15:44.998Z,84736
2016-09-08T10:16:45.293Z,83520
2016-09-08T10:17:45.293Z,88032
2016-09-08T10:18:45.270Z,92832
2016-09-08T10:19:44.672Z,97888
2016-09-08T10:20:45.448Z,95104
2016-09-08T10:21:45.249Z,100384
2016-09-08T10:22:44.919Z,100896
2016-09-08T10:23:45.210Z,96832
2016-09-08T10:24:44.901Z,98560
2016-09-08T10:25:45.192Z,83936
2016-09-08T10:26:44.872Z,45408
2016-09-08T10:27:44.854Z,34048
2016-09-08T10:28:45.150Z,32544
2016-09-08T10:29:44.829Z,31744
2016-09-08T10:30:45.127Z,31840
2016-09-08T10:31:44.199Z,31840
2016-09-08T10:32:45.099Z,31072
2016-09-08T10:33:44.783Z,26784
2016-09-08T10:34:45.089Z,23872
2016-09-08T10:35:44.760Z,23744
2016-09-08T10:36:44.458Z,23808
2016-09-08T10:37:45.038Z,23872
2016-09-08T10:38:44.419Z,23008
2016-09-08T10:39:44.704Z,23680
2016-09-08T10:40:44.994Z,24384
2016-09-08T10:41:44.978Z,27584
2016-09-08T10:42:44.671Z,30144
2016-09-08T10:43:44.958Z,30016
2016-09-08T10:44:44.941Z,29120
2016-09-08T10:45:44.937Z,26912
2016-09-08T10:46:44.609Z,24544
2016-09-08T10:47:44.904Z,24192
2016-09-08T10:48:44.888Z,24896
2016-09-08T10:49:44.878Z,29024
2016-09-08T10:50:44.558Z,34752
2016-09-08T10:51:44.845Z,43584
2016-09-08T10:52:44.838Z,70624
2016-09-08T10:53:44.511Z,79840
2016-09-08T10:54:44.803Z,79328
2016-09-08T10:55:44.477Z,81824
2016-09-08T10:56:44.471Z,85088
2016-09-08T10:57:44.458Z,85920
2016-09-08T10:58:44.442Z,85728
2016-09-08T10:59:44.739Z,83008
2016-09-08T11:00:44.709Z,84992
2016-09-08T11:01:44.698Z,80032
2016-09-08T11:02:44.077Z,78240
2016-09-08T11:03:44.366Z,84256
2016-09-08T11:04:44.352Z,79424
2016-09-08T11:05:44.337Z,75104
2016-09-08T11:06:44.628Z,73440
2016-09-08T11:07:44.604Z,74432
2016-09-08T11:08:44.008Z,71616
2016-09-08T11:09:44.274Z,64096
2016-09-08T11:10:43.954Z,41120
2016-09-08T11:11:44.542Z,21472
2016-09-08T11:12:44.535Z,19808
2016-09-08T11:13:44.210Z,18912
2016-09-08T11:14:44.195Z,18304
2016-09-08T11:15:44.484Z,17824
2016-09-08T11:16:44.158Z,17152
2016-09-08T11:17:44.140Z,16768
2016-09-08T11:18:44.425Z,16428
2016-09-08T11:19:44.414Z,16000
2016-09-08T11:20:44.390Z,15736
2016-09-08T11:21:44.384Z,15436
2016-09-08T11:22:44.358Z,15380
2016-09-08T11:23:44.042Z,15516
2016-09-08T11:24:44.319Z,15600
2016-09-08T11:25:44.306Z,15972
2016-09-08T11:26:44.283Z,18624
2016-09-08T11:27:43.965Z,47584
2016-09-08T11:28:43.944Z,71488
2016-09-08T11:29:44.232Z,54976
2016-09-08T11:30:43.907Z,20320
2016-09-08T11:31:43.908Z,13120
2016-09-08T11:32:44.168Z,12912
2016-09-08T11:33:43.844Z,12752
2016-09-08T11:34:44.125Z,12384
2016-09-08T11:35:43.800Z,11928
2016-09-08T11:36:44.085Z,11480
2016-09-08T11:37:44.073Z,10736
2016-09-08T11:38:44.050Z,9764
2016-09-08T11:39:44.025Z,8888
2016-09-08T11:40:44.024Z,8176
2016-09-08T11:41:43.988Z,7720
2016-09-08T11:42:43.661Z,7536
2016-09-08T11:43:43.648Z,7464
2016-09-08T11:44:43.615Z,7456
2016-09-08T11:45:43.912Z,7408
2016-09-08T11:46:43.884Z,7372
2016-09-08T11:47:43.551Z,7332
2016-09-08T11:48:43.840Z,7228
2016-09-08T11:49:43.510Z,7188
2016-09-08T11:50:43.187Z,7148
2016-09-08T11:51:43.170Z,7076
2016-09-08T11:52:43.745Z,7044
2016-09-08T11:53:43.421Z,7092
2016-09-08T11:54:43.701Z,7088
2016-09-08T11:55:43.676Z,7052
2016-09-08T11:56:43.353Z,7028
2016-09-08T11:57:43.631Z,7040
2016-09-08T11:58:43.004Z,7008
2016-09-08T11:59:43.003Z,6968
2016-09-08T12:00:43.261Z,6980
2016-09-08T12:01:43.234Z,6964
2016-09-08T12:02:42.909Z,6888
2016-09-08T12:03:43.190Z,6836
2016-09-08T12:04:43.468Z,6784
2016-09-08T12:05:43.142Z,6700
2016-09-08T12:06:43.121Z,6660
2016-09-08T12:07:43.105Z,6684
2016-09-08T12:08:43.375Z,6640
2016-09-08T12:09:43.358Z,6516
2016-09-08T12:10:43.026Z,6464
2016-09-08T12:11:42.695Z,6528
2016-09-08T12:12:43.279Z,6484
2016-09-08T12:13:42.953Z,6420
2016-09-08T12:14:42.942Z,6356
2016-09-08T12:15:42.913Z,6392
2016-09-08T12:16:43.181Z,6360
2016-09-08T12:17:43.172Z,6320
2016-09-08T12:18:43.138Z,6284
2016-09-08T12:19:43.110Z,6248
2016-09-08T12:20:43.094Z,6240
2016-09-08T12:21:43.064Z,6228
2016-09-08T12:22:42.734Z,6188
2016-09-08T12:23:43.010Z,6148
2016-09-08T12:24:42.383Z,6148
2016-09-08T12:25:42.662Z,6120
2016-09-08T12:26:42.941Z,6104
2016-09-08T12:27:42.626Z,6092
2016-09-08T12:28:42.899Z,6084
2016-09-08T12:29:42.565Z,6080
2016-09-08T12:30:42.843Z,6088
2016-09-08T12:31:42.217Z,6072
2016-09-08T12:32:42.794Z,6072
2016-09-08T12:33:42.773Z,6068
2016-09-08T12:34:42.135Z,6036
2016-09-08T12:35:42.721Z,6012
2016-09-08T12:36:42.689Z,5996
2016-09-08T12:37:42.666Z,5968
2016-09-08T12:38:42.340Z,5944
2016-09-08T12:39:42.314Z,5904
2016-09-08T12:40:42.300Z,5852
2016-09-08T12:41:42.568Z,5836
2016-09-08T12:42:42.250Z,5828
2016-09-08T12:43:42.513Z,5816
2016-09-08T12:44:42.196Z,5788
2016-09-08T12:45:42.474Z,5784
2016-09-08T12:46:42.142Z,5756
2016-09-08T12:47:42.429Z,5708
2016-09-08T12:48:42.089Z,5644
2016-09-08T12:49:42.372Z,5580
2016-09-08T12:50:42.350Z,5548
2016-09-08T12:51:42.322Z,5508
2016-09-08T12:52:42.291Z,5468
2016-09-08T12:53:42.270Z,5420
2016-09-08T12:54:42.242Z,5372
2016-09-08T12:55:41.928Z,5328
2016-09-08T12:56:41.590Z,5296
2016-09-08T12:57:41.868Z,5264
2016-09-08T12:58:42.149Z,5240
2016-09-08T12:59:42.120Z,5220
2016-09-08T13:00:42.096Z,5196
2016-09-08T13:01:41.779Z,5152
2016-09-08T13:02:42.050Z,5112
2016-09-08T13:03:42.023Z,5084
2016-09-08T13:04:42.000Z,5044
2016-09-08T13:05:41.674Z,5012
2016-09-08T13:06:41.650Z,4980
2016-09-08T13:07:41.626Z,4964
2016-09-08T13:08:41.598Z,4948
2016-09-08T13:09:41.568Z,4940
2016-09-08T13:10:41.849Z,4928
2016-09-08T13:11:41.838Z,4916
2016-09-08T13:12:41.502Z,4888
2016-09-08T13:13:41.777Z,4864
2016-09-08T13:14:41.442Z,4844
2016-09-08T13:15:41.734Z,4828
2016-09-08T13:16:41.404Z,4804
2016-09-08T13:17:41.675Z,4784
2016-09-08T13:18:41.646Z,4760
2016-09-08T13:19:41.625Z,4732
2016-09-08T13:20:41.612Z,4708
2016-09-08T13:21:41.576Z,4684
2016-09-08T13:22:41.549Z,4672
2016-09-08T13:23:41.527Z,4656
2016-09-08T13:24:41.509Z,4644
2016-09-08T13:25:41.470Z,4612
2016-09-08T13:26:41.456Z,4596
2016-09-08T13:27:41.437Z,4572
2016-09-08T13:28:41.093Z,4568
2016-09-08T13:29:41.372Z,4560
2016-09-08T13:30:41.045Z,4564
2016-09-08T13:31:41.329Z,4540
2016-09-08T13:32:41.297Z,4528
2016-09-08T13:33:40.975Z,4516
2016-09-08T13:34:41.240Z,4500
2016-09-08T13:35:41.228Z,4488
2016-09-08T13:36:41.201Z,4468